Time;durP1;ratioP1;P1;durP2;ratioP2;P2;SDS_P1;SDS_P2;PMS_P1;PMS_P2;Temp;Humidity;BMP_temperature;BMP_pressure;BME280_temperature;BME280_humidity;BME280_pressure;Samples;Min_cycle;Max_cycle;Signal;HPM_P1;HPM_P2
2022/06/18 00:00:42;;;;;;;2.55;1.70;;;21.10;64.10;;;20.30;50.45;97899.03;5030992;28;20835;-72
2022/06/18 00:03:09;;;;;;;2.00;1.50;;;21.10;64.00;;;20.28;51.57;97901.25;5031106;28;20492;-72
2022/06/18 00:05:36;;;;;;;2.13;1.80;;;21.00;65.30;;;20.26;52.93;97903.44;5030888;28;20410;-71
2022/06/18 00:08:04;;;;;;;4.10;1.83;;;21.00;66.80;;;20.24;52.01;97897.56;5030464;28;20881;-72
2022/06/18 00:10:31;;;;;;;1.60;1.50;;;21.00;66.00;;;20.24;50.55;97894.88;5030700;28;20537;-72
2022/06/18 00:15:58;;;;;;;3.25;1.50;;;21.00;65.50;;;20.22;52.83;97899.78;5030895;28;20445;-72
2022/06/18 00:18:25;;;;;;;3.25;1.70;;;21.00;66.80;;;20.23;52.68;97895.19;5030292;28;20411;-72
2022/06/18 00:20:51;;;;;;;3.83;1.50;;;21.00;67.30;;;20.22;54.45;97885.53;5030517;28;20417;-72
2022/06/18 00:23:18;;;;;;;1.95;1.70;;;21.00;68.90;;;20.24;53.54;97891.41;5030671;28;20403;-72
2022/06/18 00:25:47;;;;;;;1.83;1.57;;;21.00;68.20;;;20.26;53.51;97895.38;5030949;28;20404;-71
2022/06/18 00:28:19;;;;;;;3.67;1.60;;;21.00;68.20;;;20.27;52.46;97896.97;5030191;28;20441;-71
2022/06/18 00:30:46;;;;;;;3.22;1.80;;;21.00;67.10;;;20.29;51.44;97907.44;5030160;28;20420;-72
2022/06/18 00:33:13;;;;;;;3.07;1.67;;;21.10;65.70;;;20.27;52.07;97896.97;5030574;28;20444;-72
2022/06/18 00:35:41;;;;;;;1.83;1.50;;;21.00;66.40;;;20.24;54.37;97894.88;5030319;28;20395;-72
2022/06/18 00:38:14;;;;;;;1.73;1.50;;;21.00;68.90;;;20.21;53.68;97892.00;5030082;28;20414;-72
2022/06/18 00:40:43;;;;;;;3.28;1.80;;;20.90;69.10;;;20.18;54.26;97890.72;5030050;28;20963;-72
2022/06/18 00:43:16;;;;;;;2.08;1.60;;;21.00;69.20;;;20.17;54.61;97885.63;5030265;28;20824;-71
2022/06/18 00:45:42;;;;;;;2.30;1.70;;;20.90;69.50;;;20.16;53.83;97884.84;5030320;28;20402;-72
2022/06/18 00:48:16;;;;;;;3.87;1.77;;;20.90;68.70;;;20.15;52.46;97882.47;5029850;28;20516;-71
2022/06/18 00:50:48;;;;;;;2.25;1.50;;;20.90;67.20;;;20.12;52.47;97883.84;5029952;28;20460;-71
2022/06/18 00:53:22;;;;;;;2.40;1.60;;;20.90;67.00;;;20.07;52.91;97882.06;5030324;28;20411;-71
2022/06/18 00:55:55;;;;;;;2.80;1.67;;;20.80;67.50;;;20.04;53.31;97881.88;5029992;28;20408;-71
2022/06/18 00:58:28;;;;;;;3.20;1.88;;;20.80;68.00;;;20.01;52.63;97885.94;5029663;28;21323;-71
2022/06/18 01:00:56;;;;;;;3.35;1.80;;;20.80;67.60;;;19.99;52.87;97882.78;5029910;28;20538;-71
2022/06/18 01:03:27;;;;;;;2.20;1.80;;;20.80;67.60;;;19.98;53.55;97883.88;5030129;28;20398;-72
2022/06/18 01:05:55;;;;;;;2.50;1.80;;;20.70;68.30;;;19.98;54.14;97883.06;5030907;28;20881;-71
2022/06/18 01:08:25;;;;;;;2.67;1.70;;;20.70;69.30;;;19.98;54.85;97877.69;5029802;28;20743;-71
2022/06/18 01:10:55;;;;;;;1.95;1.70;;;20.70;69.80;;;19.97;54.45;97876.09;5029717;28;20395;-72
2022/06/18 01:13:28;;;;;;;3.47;1.70;;;20.70;69.80;;;19.92;54.48;97871.59;5029750;28;20423;-71
2022/06/18 01:15:55;;;;;;;2.17;1.88;;;20.70;69.50;;;19.89;55.79;97868.75;5029790;28;20494;-71
2022/06/18 01:18:24;;;;;;;2.05;1.77;;;20.60;71.10;;;19.84;55.84;97875.03;5029381;28;20446;-72
2022/06/18 01:20:56;;;;;;;3.47;1.88;;;20.60;71.30;;;19.81;54.28;97870.22;5029590;28;20413;-71
2022/06/18 01:23:32;;;;;;;3.00;2.10;;;20.60;69.70;;;19.76;55.86;97861.47;5029698;28;20395;-71
2022/06/18 01:25:59;;;;;;;2.90;1.92;;;20.50;71.50;;;19.72;52.96;97853.22;5029468;28;20777;-71
2022/06/18 01:28:26;;;;;;;2.28;2.08;;;20.50;68.20;;;19.68;54.42;97857.59;5029238;28;20407;-72
2022/06/18 01:30:52;;;;;;;3.50;1.92;;;20.50;69.90;;;19.66;55.00;97860.56;5029481;28;20877;-72
2022/06/18 01:33:19;;;;;;;4.57;2.10;;;20.40;70.60;;;19.65;54.86;97853.59;5029693;28;20410;-72
2022/06/18 01:35:50;;;;;;;4.43;2.10;;;20.40;70.40;;;19.64;54.29;97853.91;5029726;28;20850;-71
2022/06/18 01:38:16;;;;;;;2.65;2.05;;;20.40;69.50;;;19.63;53.33;97855.00;5029233;28;20395;-71
2022/06/18 01:40:52;;;;;;;3.00;2.05;;;20.40;68.70;;;19.60;54.32;97844.88;5029610;28;20757;-71
2022/06/18 01:43:23;;;;;;;2.42;1.85;;;20.40;69.30;;;19.58;53.79;97844.34;5033746;28;20411;-71
2022/06/18 01:45:56;;;;;;;2.13;1.90;;;20.30;69.00;;;19.55;54.25;97844.94;5033570;28;20395;-71
2022/06/18 01:48:30;;;;;;;2.20;1.92;;;20.30;69.60;;;19.51;54.97;97836.69;5033066;28;20410;-72
2022/06/18 01:51:02;;;;;;;3.13;2.05;;;20.30;70.30;;;19.48;56.28;97836.47;5033158;28;20410;-71
2022/06/18 01:53:37;;;;;;;2.58;2.15;;;20.30;72.10;;;19.43;54.74;97836.56;5033779;28;20494;-71
2022/06/18 01:56:09;;;;;;;2.88;2.03;;;20.20;70.40;;;19.38;55.61;97831.28;5033419;28;20402;-72
2022/06/18 01:58:42;;;;;;;2.67;2.00;;;20.20;71.30;;;19.32;55.92;97825.22;5033100;28;20407;-72
2022/06/18 02:01:20;;;;;;;2.75;1.95;;;20.10;71.70;;;19.28;54.51;97824.22;5032950;28;20414;-71
2022/06/18 02:03:46;;;;;;;3.83;2.10;;;20.10;70.40;;;19.22;54.53;97825.41;5033384;28;20394;-71
2022/06/18 02:06:13;;;;;;;4.20;2.03;;;20.00;70.30;;;19.15;55.71;97822.31;5033190;28;20768;-72
2022/06/18 02:08:39;;;;;;;5.55;2.40;;;19.90;71.50;;;19.11;56.45;97816.72;5032485;28;20456;-71
2022/06/18 02:11:07;;;;;;;5.47;2.57;;;19.90;72.60;;;19.10;56.01;97808.97;5032849;28;20500;-72
2022/06/18 02:13:40;;;;;;;3.60;2.50;;;19.90;71.90;;;19.05;56.19;97817.09;5033249;28;20430;-71
2022/06/18 02:16:13;;;;;;;4.37;2.60;;;19.80;72.40;;;19.02;55.23;97804.28;5033102;28;20418;-71
2022/06/18 02:18:43;;;;;;;3.60;2.13;;;19.80;71.20;;;19.00;54.88;97801.91;5032392;28;20418;-71
2022/06/18 02:21:13;;;;;;;3.40;2.30;;;19.80;71.00;;;18.95;55.23;97796.59;5032845;28;20403;-72
2022/06/18 02:23:39;;;;;;;2.90;2.20;;;19.70;71.40;;;18.93;56.50;97801.50;5033014;28;20395;-72
2022/06/18 02:26:07;;;;;;;3.75;2.20;;;19.70;72.60;;;18.90;56.66;97794.03;5032954;28;20418;-71
2022/06/18 02:28:40;;;;;;;2.85;2.28;;;19.70;73.30;;;18.87;57.67;97800.75;5032380;28;20403;-72
2022/06/18 02:31:11;;;;;;;3.63;2.17;;;19.70;74.40;;;18.84;57.86;97789.84;5032553;28;20410;-72
2022/06/18 02:33:41;;;;;;;3.75;2.30;;;19.60;74.50;;;18.79;57.58;97788.03;5032822;28;20403;-72
2022/06/18 02:36:13;;;;;;;5.30;2.17;;;19.60;75.10;;;18.78;57.85;97791.03;5032615;28;20403;-71
2022/06/18 02:38:40;;;;;;;2.80;2.10;;;19.60;74.90;;;18.77;59.60;97789.41;5031854;28;20466;-72
2022/06/18 02:41:07;;;;;;;3.00;2.22;;;19.60;77.10;;;18.75;61.20;97787.03;5032371;28;20403;-72
2022/06/18 02:43:33;;;;;;;3.33;2.17;;;19.50;79.30;;;18.72;61.88;97792.19;5014772;28;20773;-72
2022/06/18 02:46:02;;;;;;;4.25;2.35;;;19.50;80.50;;;18.67;62.28;97795.75;5032406;28;20403;-72
2022/06/18 02:48:31;;;;;;;4.80;2.00;;;19.50;81.70;;;18.62;60.64;97795.84;5032029;28;20407;-71
2022/06/18 02:51:00;;;;;;;2.60;1.88;;;19.50;79.70;;;18.59;61.46;97796.41;5032257;28;20501;-72
2022/06/18 02:53:28;;;;;;;3.05;2.25;;;19.40;80.80;;;18.53;60.68;97794.88;5032248;28;20865;-72
2022/06/18 02:55:58;;;;;;;2.33;2.13;;;19.30;79.90;;;18.52;60.68;97794.06;5032113;28;20904;-72
2022/06/18 02:58:28;;;;;;;3.00;2.15;;;19.30;79.70;;;18.48;60.83;97793.06;5031757;28;20503;-72
2022/06/18 03:00:57;;;;;;;2.53;2.10;;;19.30;80.10;;;18.47;60.48;97796.84;5032022;28;20410;-72
2022/06/18 03:03:31;;;;;;;3.53;2.47;;;19.30;79.70;;;18.46;59.97;97797.13;5032259;28;20502;-71
2022/06/18 03:05:57;;;;;;;4.30;2.30;;;19.30;79.10;;;18.44;60.49;97792.03;5014426;28;20414;-72
2022/06/18 03:08:26;;;;;;;2.35;2.13;;;19.20;80.00;;;18.44;62.36;97793.94;5031430;28;20465;-72
2022/06/18 03:13:38;;;;;;;2.78;2.20;;;19.20;84.50;;;18.42;64.21;97798.78;5032161;28;20900;-71
2022/06/18 03:16:08;;;;;;;2.97;2.22;;;19.20;86.40;;;18.41;64.50;97795.31;5031866;28;20490;-71
2022/06/18 03:18:37;;;;;;;2.80;2.27;;;19.20;87.20;;;18.39;65.42;97785.97;5031542;28;20457;-72
2022/06/18 03:21:15;;;;;;;2.30;2.10;;;19.20;88.60;;;18.36;65.28;97786.53;5031790;28;20407;-72
2022/06/18 03:23:42;;;;;;;2.90;2.38;;;19.20;89.00;;;18.34;65.24;97780.69;5032090;28;20461;-72
2022/06/18 03:26:08;;;;;;;3.35;2.10;;;19.10;89.20;;;18.30;64.86;97782.34;5031977;28;20407;-71
2022/06/18 03:28:34;;;;;;;3.88;2.53;;;19.10;89.10;;;18.27;65.13;97786.41;5030120;28;20407;-71
2022/06/18 03:31:00;;;;;;;2.58;1.92;;;19.10;89.80;;;18.27;65.21;97783.72;5030262;28;20410;-71
2022/06/18 03:33:26;;;;;;;5.43;2.50;;;19.10;90.10;;;18.29;62.73;97783.44;5013945;28;20513;-71
2022/06/18 03:35:54;;;;;;;3.13;2.38;;;19.10;86.70;;;18.34;63.86;97789.53;5031788;28;20509;-71
2022/06/18 03:38:21;;;;;;;2.85;2.53;;;19.10;88.30;;;18.42;61.70;97788.06;5013341;28;20493;-71
2022/06/18 03:40:51;;;;;;;3.28;2.30;;;19.20;84.50;;;18.50;58.52;97790.06;5031480;28;20407;-71
2022/06/18 03:43:18;;;;;;;3.30;2.37;;;19.30;79.50;;;18.60;59.00;97791.84;5031559;28;20395;-72
2022/06/18 03:45:48;;;;;;;3.50;2.40;;;19.30;80.40;;;18.72;58.59;97795.66;5031465;28;20402;-71
2022/06/18 03:48:22;;;;;;;3.65;2.30;;;19.40;79.80;;;18.82;57.46;97792.81;5031052;28;20402;-71
2022/06/18 03:50:49;;;;;;;3.25;2.30;;;19.50;77.60;;;18.92;59.13;97797.22;5031093;28;20403;-71
2022/06/18 03:53:17;;;;;;;2.45;2.15;;;19.60;79.80;;;19.00;57.81;97795.75;5031276;28;20445;-72
2022/06/18 03:55:43;;;;;;;2.63;2.40;;;19.70;78.00;;;19.05;59.35;97801.81;5013457;28;20780;-71
2022/06/18 03:58:10;;;;;;;2.42;2.05;;;19.80;80.20;;;19.09;59.80;97810.06;5030794;28;20399;-72
2022/06/18 04:00:37;;;;;;;3.17;2.15;;;19.80;80.80;;;19.08;60.71;97811.16;5030929;28;20800;-72
2022/06/18 04:03:03;;;;;;;4.72;2.30;;;19.80;82.10;;;19.06;60.31;97807.97;5030986;28;20407;-71
2022/06/18 04:05:30;;;;;;;3.90;2.30;;;19.80;81.80;;;19.06;61.66;97814.13;5030566;28;20399;-71
2022/06/18 04:07:56;;;;;;;3.78;2.60;;;19.80;83.90;;;19.09;58.74;97812.75;5032001;28;20410;-71
2022/06/18 04:10:23;;;;;;;3.15;2.50;;;19.80;79.80;;;19.12;58.20;97812.94;5030155;28;20411;-72
2022/06/18 04:12:49;;;;;;;3.20;2.33;;;19.80;78.70;;;19.18;56.42;97819.81;5030825;28;20418;-71
2022/06/18 04:15:18;;;;;;;3.20;2.20;;;19.90;76.40;;;19.26;55.10;97818.34;5030933;28;20434;-72
2022/06/18 04:17:44;;;;;;;3.22;2.38;;;19.90;74.20;;;19.30;54.94;97819.34;5030828;28;20537;-71
2022/06/18 04:20:20;;;;;;;3.88;2.55;;;19.90;73.80;;;19.36;56.29;97814.66;5029999;28;20399;-71
2022/06/18 04:22:46;;;;;;;5.15;2.58;;;20.00;75.30;;;19.43;54.20;97820.44;5030660;28;20457;-71
2022/06/18 04:25:12;;;;;;;2.63;2.43;;;20.10;72.90;;;19.50;56.87;97815.50;5030717;28;20541;-71
2022/06/18 04:27:39;;;;;;;2.43;2.10;;;20.20;76.20;;;19.55;57.75;97815.41;5030715;28;20769;-71
2022/06/18 04:30:08;;;;;;;3.22;2.40;;;20.20;77.40;;;19.59;58.97;97816.41;5029813;28;20765;-71
2022/06/18 04:32:35;;;;;;;3.63;2.20;;;20.30;79.20;;;19.61;58.63;97817.72;5030497;28;20426;-71
2022/06/18 04:35:02;;;;;;;3.42;2.50;;;20.30;79.20;;;19.63;58.14;97815.50;5030532;28;20427;-71
2022/06/18 04:37:28;;;;;;;2.95;2.30;;;20.30;78.40;;;19.66;59.29;97822.97;5030545;28;20438;-71
2022/06/18 04:39:54;;;;;;;3.78;2.50;;;20.30;79.70;;;19.69;61.30;97818.91;5029902;28;20762;-72
2022/06/18 04:42:19;;;;;;;3.10;2.55;;;20.40;82.90;;;19.67;61.98;97821.88;5030152;28;20422;-72
2022/06/18 04:44:47;;;;;;;3.20;2.60;;;20.40;84.20;;;19.67;62.04;97818.41;5030411;28;20494;-71
2022/06/18 04:47:13;;;;;;;2.97;2.20;;;20.40;84.70;;;19.66;63.45;97814.91;5012889;28;20920;-72
2022/06/18 04:49:39;;;;;;;3.03;2.30;;;20.40;87.10;;;19.67;63.81;97808.47;5029899;28;20410;-71
2022/06/18 04:52:05;;;;;;;2.45;2.25;;;20.30;88.00;;;19.67;63.97;97816.50;5029995;28;20773;-71
2022/06/18 04:54:31;;;;;;;2.72;2.20;;;20.40;88.60;;;19.69;65.17;97818.91;5030348;28;20416;-71
2022/06/18 04:56:57;;;;;;;3.38;2.58;;;20.40;90.40;;;19.70;65.86;97815.91;5030222;28;20411;-71
2022/06/18 04:59:24;;;;;;;2.60;2.30;;;20.40;91.20;;;19.72;65.17;97812.91;5029547;28;20891;-71
2022/06/18 05:02:02;;;;;;;4.00;2.40;;;20.40;90.70;;;19.75;65.65;97822.28;5029994;28;20407;-71
2022/06/18 05:04:28;;;;;;;4.50;2.50;;;20.40;91.40;;;19.78;65.50;97814.41;5030001;28;20505;-71
2022/06/18 05:06:54;;;;;;;2.80;2.53;;;20.40;91.50;;;19.83;66.60;97818.91;5030142;28;20418;-71
2022/06/18 05:09:20;;;;;;;3.27;2.50;;;20.50;92.40;;;19.86;66.81;97816.38;5029707;28;20900;-71
2022/06/18 05:11:47;;;;;;;2.83;2.42;;;20.50;92.90;;;19.91;66.73;97812.81;5011915;28;20459;-71
2022/06/18 05:14:14;;;;;;;3.50;2.60;;;20.60;93.20;;;19.95;67.44;97808.41;5030021;28;20449;-71
2022/06/18 05:16:40;;;;;;;4.23;2.40;;;20.60;93.80;;;19.99;67.48;97817.50;5028988;28;21127;-71
2022/06/18 05:19:19;;;;;;;3.40;2.42;;;20.60;94.20;;;20.03;67.85;97823.84;5029233;28;20536;-71
2022/06/18 05:21:44;;;;;;;3.58;2.85;;;20.70;94.70;;;20.07;67.72;97820.22;5029549;28;20399;-71
2022/06/18 05:24:10;;;;;;;3.33;2.80;;;20.70;94.70;;;20.12;68.07;97816.66;5029965;28;20407;-71
2022/06/18 05:26:36;;;;;;;3.30;2.80;;;20.70;95.20;;;20.17;68.64;97810.38;5029779;28;20458;-71
2022/06/18 05:29:02;;;;;;;4.07;2.50;;;20.80;96.00;;;20.23;68.27;97819.91;5029257;28;20406;-71
2022/06/18 05:31:28;;;;;;;3.83;2.65;;;20.80;95.90;;;20.26;68.81;97806.66;5029497;28;20399;-71
2022/06/18 05:33:54;;;;;;;3.42;2.63;;;20.90;96.60;;;20.31;68.97;97808.44;5029945;28;20912;-72
2022/06/18 05:36:22;;;;;;;3.33;2.72;;;20.90;96.90;;;20.36;68.62;97803.78;5029706;28;20866;-71
2022/06/18 05:38:49;;;;;;;2.55;2.30;;;21.00;96.80;;;20.38;68.06;97806.94;5029240;28;20399;-71
2022/06/18 05:41:15;;;;;;;3.50;2.75;;;21.00;96.40;;;20.45;68.84;97806.53;5029037;28;20757;-69
2022/06/18 05:43:41;;;;;;;3.70;2.50;;;21.00;97.20;;;20.47;68.73;97799.75;5116097;22;20431;-71
2022/06/18 05:46:11;;;;;;;2.77;2.30;;;21.10;97.40;;;20.53;69.20;97796.94;5109998;28;20892;-73
2022/06/18 05:48:37;;;;;;;3.45;2.53;;;21.10;97.90;;;20.57;69.09;97806.78;5091185;28;20407;-71
2022/06/18 05:51:05;;;;;;;3.88;2.97;;;21.10;97.80;;;20.61;68.09;97810.44;5109812;28;20400;-72
2022/06/18 05:53:32;;;;;;;3.05;2.60;;;21.20;97.10;;;20.66;67.68;97810.34;5109965;28;20415;-72
2022/06/18 05:55:58;;;;;;;2.93;2.63;;;21.30;96.80;;;20.72;67.06;97811.00;5110013;28;20490;-72
2022/06/18 05:58:24;;;;;;;2.57;2.37;;;21.30;96.00;;;20.78;66.63;97812.47;5109438;28;20416;-72
2022/06/18 06:00:50;;;;;;;7.13;2.73;;;21.40;95.50;;;20.82;65.89;97810.78;5109846;28;20399;-72
2022/06/18 06:03:16;;;;;;;4.18;2.40;;;21.40;94.40;;;20.88;63.87;97803.38;5109802;28;20483;-72
2022/06/18 06:05:42;;;;;;;2.65;2.40;;;21.50;92.70;;;20.96;64.37;97802.63;5109829;28;20408;-71
2022/06/18 06:08:10;;;;;;;4.65;2.33;;;21.50;92.90;;;21.03;63.40;97805.66;5109339;28;20397;-72
2022/06/18 06:13:23;;;;;;;3.95;2.20;;;21.70;85.00;;;21.18;60.34;97808.00;5109724;28;20435;-72
2022/06/18 06:15:49;;;;;;;2.30;2.10;;;21.80;87.30;;;21.24;57.92;97798.69;5109848;28;20469;-72
2022/06/18 06:18:18;;;;;;;3.15;2.45;;;21.80;82.00;;;21.33;58.53;97801.41;5109183;28;20393;-72
2022/06/18 06:20:47;;;;;;;3.92;2.30;;;21.90;82.80;;;21.41;56.88;97800.66;5109260;28;20392;-73
2022/06/18 06:23:14;;;;;;;2.97;2.33;;;21.90;79.50;;;21.48;57.28;97801.81;5109325;28;20880;-72
2022/06/18 06:25:44;;;;;;;3.72;2.50;;;22.10;79.90;;;21.53;53.58;97800.84;5097808;28;20390;-72
2022/06/18 06:28:14;;;;;;;7.55;2.47;;;22.10;73.70;;;21.62;53.57;97801.69;5098394;28;20398;-72
2022/06/18 06:30:40;;;;;;;7.10;2.90;;;22.20;73.60;;;21.69;51.82;97803.91;5092768;28;20459;-72
2022/06/18 06:33:06;;;;;;;3.92;2.17;;;22.20;70.60;;;21.80;53.47;97806.00;5092542;28;20875;-73
2022/06/18 06:35:33;;;;;;;5.57;2.50;;;22.30;72.60;;;21.85;52.46;97805.88;5092899;28;20402;-74
2022/06/18 06:37:59;;;;;;;3.97;2.47;;;22.40;71.70;;;21.93;52.87;97796.22;5099952;28;20493;-73
2022/06/18 06:40:25;;;;;;;2.80;2.30;;;22.50;71.90;;;21.98;54.18;97804.19;5112531;28;20575;-73
2022/06/18 06:42:56;;;;;;;4.18;2.53;;;22.50;73.40;;;22.04;52.66;97794.03;5103197;28;20455;-72
2022/06/18 06:45:25;;;;;;;2.78;2.13;;;22.60;71.20;;;22.10;52.65;97787.41;5102277;28;20408;-72
2022/06/18 06:47:52;;;;;;;3.13;2.30;;;22.60;71.30;;;22.17;55.12;97787.72;5103413;28;20467;-72
2022/06/18 06:50:20;;;;;;;4.00;2.13;;;22.70;74.90;;;22.22;54.94;97782.97;5101042;28;20398;-72
2022/06/18 06:52:48;;;;;;;4.97;2.50;;;22.80;74.50;;;22.24;50.06;97785.34;5101469;28;20445;-72
2022/06/18 06:58:07;;;;;;;4.30;2.35;;;22.80;70.70;;;22.36;51.69;97788.19;5102132;28;20404;-73
2022/06/18 07:00:40;;;;;;;4.85;2.08;;;22.90;69.50;;;22.43;51.01;97795.81;5083663;28;20426;-73
2022/06/18 07:03:08;;;;;;;4.75;2.20;;;22.90;68.60;;;22.49;50.12;97787.22;5101166;28;20402;-72
2022/06/18 07:05:35;;;;;;;3.42;1.95;;;23.00;67.60;;;22.53;49.01;97790.91;5082052;28;20392;-72
2022/06/18 07:08:01;;;;;;;2.65;1.92;;;23.10;65.80;;;22.61;49.52;97789.31;5106635;28;20849;-72
2022/06/18 07:10:27;;;;;;;5.90;1.80;;;23.10;66.30;;;22.67;50.76;97790.72;5100705;28;20437;-74
2022/06/18 07:12:53;;;;;;;3.83;2.13;;;23.20;67.90;;;22.73;50.76;97786.75;5081488;28;21033;-72
2022/06/18 07:15:20;;;;;;;2.37;2.10;;;23.20;68.10;;;22.80;52.33;97786.28;5102157;28;20406;-71
2022/06/18 07:17:56;;;;;;;2.75;2.03;;;23.30;70.20;;;22.82;52.40;97784.84;5094138;28;20437;-73
2022/06/18 07:20:31;;;;;;;3.17;1.85;;;23.30;69.90;;;22.88;51.23;97791.66;5080103;28;20401;-72
2022/06/18 07:22:58;;;;;;;2.40;1.83;;;23.40;68.80;;;22.94;52.62;97792.28;5102706;28;21075;-73
2022/06/18 07:25:24;;;;;;;5.18;2.40;;;23.40;70.60;;;22.96;50.74;97790.84;5102306;28;20881;-74
2022/06/18 07:27:52;;;;;;;3.33;2.20;;;23.40;68.10;;;23.05;52.50;97785.44;5101645;28;20410;-74
2022/06/18 07:30:20;;;;;;;3.33;1.92;;;23.50;70.20;;;23.10;53.46;97785.25;5102024;28;20996;-73
2022/06/18 07:32:48;;;;;;;2.45;2.10;;;23.60;71.70;;;23.14;54.30;97788.91;5100819;28;20463;-73
2022/06/18 07:35:20;;;;;;;2.95;2.20;;;23.60;72.80;;;23.15;55.07;97780.47;5101054;28;20404;-74
2022/06/18 07:37:46;;;;;;;2.90;2.20;;;23.60;74.00;;;23.22;55.41;97780.00;5102259;28;20889;-76
2022/06/18 07:40:13;;;;;;;6.43;2.58;;;23.70;74.90;;;23.21;49.54;97781.09;5099622;28;20847;-70
2022/06/18 07:42:39;;;;;;;3.53;2.40;;;23.70;66.30;;;23.31;50.80;97775.31;5097231;28;20396;-70
2022/06/18 07:45:14;;;;;;;2.50;2.08;;;23.80;68.20;;;23.36;48.20;97771.69;5100567;28;20413;-70
2022/06/18 07:47:42;;;;;;;3.15;2.28;;;23.80;64.60;;;23.43;45.32;97771.97;5100995;28;20412;-71
2022/06/18 07:50:08;;;;;;;3.83;2.27;;;23.90;60.70;;;23.52;45.80;97775.44;5099395;28;20399;-71
2022/06/18 07:52:34;;;;;;;2.60;2.17;;;24.00;61.20;;;23.68;47.56;97778.41;5102094;28;20770;-70
2022/06/18 07:55:00;;;;;;;2.10;1.83;;;24.10;63.30;;;23.76;47.48;97775.63;5089290;28;20775;-69
2022/06/18 07:57:26;;;;;;;2.55;2.20;;;24.30;62.90;;;23.81;45.20;97770.03;5100394;28;20388;-70
2022/06/18 07:59:52;;;;;;;3.00;2.00;;;24.30;60.20;;;23.97;46.27;97764.84;5101396;28;20463;-70
2022/06/18 08:02:19;;;;;;;7.55;2.38;;;24.40;61.50;;;24.21;47.06;97777.72;5100302;28;20390;-75
2022/06/18 08:04:46;;;;;;;5.70;2.20;;;24.60;66.80;;;24.27;43.07;97761.00;5100451;28;20392;-72
2022/06/18 08:07:12;;;;;;;2.70;1.80;;;24.80;59.20;;;24.40;43.13;97759.13;5099118;28;20401;-73
2022/06/18 08:09:38;;;;;;;5.75;2.00;;;24.80;58.60;;;24.50;42.97;97771.47;5100482;28;20402;-73
2022/06/18 08:12:05;;;;;;;3.22;1.85;;;24.90;58.30;;;24.53;42.07;97758.06;5099319;28;20410;-73
2022/06/18 08:14:31;;;;;;;5.70;2.15;;;25.00;57.40;;;24.65;41.44;97762.75;5099510;28;20414;-73
2022/06/18 08:16:57;;;;;;;2.40;1.90;;;25.10;56.50;;;24.75;41.88;97759.59;5098018;28;20880;-72
2022/06/18 08:19:23;;;;;;;4.55;2.20;;;25.20;56.80;;;24.85;41.65;97758.38;5100849;28;20401;-73
2022/06/18 08:21:52;;;;;;;1.92;1.73;;;25.30;56.40;;;24.94;41.59;97753.72;5099419;28;20401;-73
2022/06/18 08:24:21;;;;;;;2.25;1.70;;;25.40;56.30;;;25.04;41.19;97754.06;5105124;28;20393;-77
2022/06/18 08:26:50;;;;;;;2.13;1.80;;;25.50;56.10;;;25.15;40.68;97751.72;5110913;28;20397;-77
2022/06/18 08:29:21;;;;;;;3.20;1.83;;;25.60;55.30;;;25.25;40.34;97754.00;5108838;28;20407;-77
2022/06/18 08:31:47;;;;;;;2.60;2.08;;;25.60;54.80;;;25.34;39.99;97751.16;5110027;28;20392;-78
2022/06/18 08:34:13;;;;;;;2.10;1.83;;;25.70;54.60;;;25.42;40.53;97755.66;5111690;28;20427;-78
2022/06/18 08:36:41;;;;;;;3.17;1.90;;;25.80;54.90;;;25.52;39.97;97751.72;5110937;28;20404;-76
2022/06/18 08:39:09;;;;;;;2.05;1.58;;;25.90;54.50;;;25.60;39.91;97754.34;5110414;28;20898;-76
2022/06/18 08:42:01;;;;;;;2.00;1.67;;;26.00;54.50;;;25.70;39.99;97748.47;5108058;28;20900;-76
2022/06/18 08:44:57;;;;;;;2.80;1.93;;;26.10;54.50;;;25.73;37.22;97742.38;5099172;28;20910;-76
2022/06/18 08:47:45;;;;;;;1.50;1.40;;;26.10;51.30;;;25.86;36.36;97737.72;5097586;28;20419;-76
2022/06/18 08:50:34;;;;;;;1.63;1.50;;;26.20;50.20;;;26.01;36.59;97747.84;5098741;28;20423;-76
2022/06/18 08:53:38;;;;;;;3.85;1.98;;;26.40;50.60;;;26.08;35.62;97739.16;5093629;28;20406;-76
2022/06/18 08:56:12;;;;;;;1.65;1.55;;;26.40;49.60;;;26.24;35.79;97733.78;5088580;28;20521;-75
2022/06/18 08:58:46;;;;;;;1.73;1.33;;;26.60;49.60;;;26.39;36.05;97731.13;5110323;28;20399;-76
2022/06/18 09:01:19;;;;;;;3.15;1.70;;;26.80;50.30;;;26.47;34.80;97729.41;5110774;28;20420;-76
2022/06/18 09:04:13;;;;;;;1.50;1.40;;;26.80;48.70;;;26.63;35.98;97730.25;5110584;28;20396;-76
2022/06/18 09:07:07;;;;;;;2.63;1.65;;;27.00;50.00;;;26.75;35.78;97727.47;5110517;28;20451;-76
2022/06/18 09:09:48;;;;;;;1.52;1.33;;;27.10;49.70;;;26.85;34.62;97731.59;5106363;28;20442;-76
2022/06/18 09:12:20;;;;;;;1.75;1.50;;;27.20;48.30;;;26.96;34.81;97724.56;5110557;28;20419;-76
2022/06/18 09:14:51;;;;;;;1.60;1.40;;;27.30;48.60;;;27.07;35.10;97720.16;5110965;28;20468;-76
2022/06/18 09:17:23;;;;;;;1.93;1.30;;;27.40;48.60;;;27.17;34.09;97721.56;5110576;28;20411;-76
2022/06/18 09:19:58;;;;;;;3.15;1.50;;;27.50;47.80;;;27.22;32.76;97724.00;5110024;28;20399;-76
2022/06/18 09:22:26;;;;;;;2.97;1.45;;;27.60;46.20;;;27.34;32.73;97716.56;5110662;28;20396;-77
2022/06/18 09:24:59;;;;;;;3.30;1.40;;;27.70;46.30;;;27.45;32.93;97713.28;5110462;28;20412;-77
2022/06/18 09:27:34;;;;;;;1.75;1.38;;;27.70;46.10;;;27.53;32.71;97721.31;5110454;28;20392;-77
2022/06/18 09:30:06;;;;;;;2.33;1.40;;;27.80;45.90;;;27.63;32.06;97711.81;5109834;28;20399;-77
2022/06/18 09:32:38;;;;;;;2.08;1.38;;;27.90;45.50;;;27.70;30.89;97712.75;5110295;28;20435;-77
2022/06/18 09:35:12;;;;;;;3.47;1.13;;;28.00;44.20;;;27.81;29.30;97712.22;5110417;28;20396;-76
2022/06/18 09:37:50;;;;;;;0.90;0.90;;;28.10;42.30;;;27.89;29.60;97709.28;5110581;28;20393;-75
2022/06/18 09:40:23;;;;;;;3.10;1.37;;;28.20;42.30;;;27.90;29.01;97708.13;5109530;28;20392;-76
2022/06/18 09:43:00;;;;;;;1.13;1.03;;;28.20;41.90;;;27.97;29.18;97707.50;5110074;28;20385;-76
2022/06/18 09:45:32;;;;;;;1.40;1.30;;;28.30;42.20;;;28.07;29.59;97705.00;5110117;28;20400;-75
2022/06/18 09:48:00;;;;;;;3.03;1.08;;;28.30;42.30;;;28.20;29.84;97699.44;5110144;28;21027;-74
2022/06/18 09:50:41;;;;;;;4.05;1.35;;;28.50;42.50;;;28.34;29.71;97705.19;5109865;28;20411;-75
2022/06/18 09:53:16;;;;;;;1.20;1.10;;;28.60;42.80;;;28.47;27.56;97693.00;5109926;28;20474;-76
2022/06/18 09:55:46;;;;;;;1.35;1.02;;;28.70;42.10;;;28.65;29.19;97698.75;5109848;28;20393;-75
2022/06/18 09:58:19;;;;;;;1.13;1.02;;;28.90;41.90;;;28.78;28.93;97695.56;5109479;28;20469;-75
2022/06/18 10:00:46;;;;;;;2.08;1.10;;;29.00;41.80;;;28.85;26.94;97703.06;5109738;28;20480;-75
2022/06/18 10:06:52;;;;;;;1.55;1.10;;;29.20;39.90;;;29.04;27.51;97699.47;5112729;28;20761;-75
2022/06/18 10:08:52;;;;;;;1.65;1.15;;;29.40;40.50;;;29.37;27.89;97696.94;5113203;28;20427;-75
2022/06/18 10:11:21;;;;;;;2.65;1.17;;;29.60;40.70;;;29.50;26.87;97692.06;5113701;28;20453;-75
2022/06/18 10:13:57;;;;;;;1.45;1.20;;;29.70;39.40;;;29.57;24.57;97684.75;5113709;28;20454;-75
2022/06/18 10:16:39;;;;;;;1.63;1.00;;;29.80;37.00;;;29.66;23.65;97686.44;5113675;28;20496;-76
2022/06/18 10:19:15;;;;;;;1.70;0.80;;;29.90;35.70;;;29.75;23.95;97682.28;5113123;28;20404;-76
2022/06/18 10:21:50;;;;;;;2.03;1.10;;;30.00;35.50;;;29.75;22.30;97676.81;5113378;28;20419;-76
2022/06/18 10:24:28;;;;;;;2.85;1.02;;;30.00;34.20;;;29.84;22.41;97685.53;5113711;28;20475;-76
2022/06/18 10:27:07;;;;;;;2.83;0.90;;;30.10;33.90;;;30.01;21.53;97679.53;5113620;28;20406;-76
2022/06/18 10:29:44;;;;;;;1.70;0.80;;;30.20;33.10;;;30.44;21.36;97669.13;5112789;28;20527;-76
2022/06/18 10:32:30;;;;;;;4.30;0.77;;;30.60;33.00;;;30.95;19.55;97665.72;5095098;28;20412;-76
2022/06/18 10:35:19;;;;;;;2.97;0.88;;;31.00;30.20;;;31.78;19.83;97658.53;5113474;28;20388;-76
2022/06/18 10:38:06;;;;;;;2.92;0.82;;;31.90;30.60;;;32.86;20.27;97655.72;5113357;28;20922;-74
2022/06/18 10:40:46;;;;;;;1.00;0.70;;;32.90;31.40;;;34.13;20.55;97645.75;5113160;28;20400;-75
2022/06/18 10:43:32;;;;;;;2.47;1.00;;;34.10;32.10;;;35.39;20.23;97647.25;5113148;28;20416;-76
2022/06/18 10:46:06;;;;;;;1.10;0.90;;;35.30;32.00;;;36.58;20.10;97647.03;5113344;28;20594;-76